Time;durP1;ratioP1;P1;durP2;ratioP2;P2;SDS_P1;SDS_P2;PMS_P1;PMS_P2;Temp;Humidity;BMP_temperature;BMP_pressure;BME280_temperature;BME280_humidity;BME280_pressure;Samples;Min_cycle;Max_cycle;Signal;HPM_P1;HPM_P2
2022/06/30 00:00:17;;;;;;;9.98;8.57;;;20.50;99.90;;;;;;4992324;28;20073;-63
2022/06/30 00:02:43;;;;;;;9.15;8.10;;;20.50;99.90;;;;;;4992203;28;20050;-63
2022/06/30 00:05:08;;;;;;;10.32;7.90;;;20.50;99.90;;;;;;4999362;28;20508;-63
2022/06/30 00:07:34;;;;;;;9.45;8.18;;;20.50;99.90;;;;;;4992783;28;20097;-63
2022/06/30 00:10:00;;;;;;;11.32;7.70;;;20.40;99.90;;;;;;5000917;28;20045;-63
2022/06/30 00:12:26;;;;;;;8.82;7.90;;;20.30;99.90;;;;;;4991268;28;20494;-63
2022/06/30 00:14:51;;;;;;;9.07;7.78;;;20.10;99.90;;;;;;4991804;28;20049;-63
2022/06/30 00:17:17;;;;;;;8.93;7.93;;;20.00;99.90;;;;;;4990805;28;20053;-63
2022/06/30 00:19:45;;;;;;;8.15;7.45;;;19.90;99.90;;;;;;4972756;28;20060;-63
2022/06/30 00:22:11;;;;;;;8.70;7.80;;;19.70;99.90;;;;;;4992076;28;20042;-63
2022/06/30 00:24:37;;;;;;;10.68;8.05;;;19.70;99.90;;;;;;4990698;28;20070;-63
2022/06/30 00:27:05;;;;;;;10.02;8.20;;;19.70;99.90;;;;;;4990360;28;20065;-63
2022/06/30 00:29:31;;;;;;;9.98;7.60;;;19.70;99.90;;;;;;4991003;28;20034;-63
2022/06/30 00:31:56;;;;;;;9.52;7.60;;;19.70;99.90;;;;;;4990793;28;20042;-63
2022/06/30 00:34:23;;;;;;;8.85;7.57;;;19.70;99.90;;;;;;4995405;28;20093;-63
2022/06/30 00:36:49;;;;;;;7.95;7.25;;;19.70;99.90;;;;;;4991766;28;20550;-63
2022/06/30 00:39:15;;;;;;;9.10;7.78;;;19.80;99.90;;;;;;4996464;28;20124;-63
2022/06/30 00:41:41;;;;;;;8.75;7.40;;;19.80;99.90;;;;;;5001624;28;20112;-63
2022/06/30 00:44:10;;;;;;;9.25;8.10;;;19.80;99.90;;;;;;4998109;28;20110;-63
2022/06/30 00:46:35;;;;;;;9.07;8.10;;;19.80;99.90;;;;;;4991792;28;20038;-63
2022/06/30 00:49:01;;;;;;;11.57;7.93;;;19.70;99.90;;;;;;4992004;28;20062;-63
2022/06/30 00:51:27;;;;;;;10.07;8.27;;;19.70;99.90;;;;;;4992153;28;20147;-63
2022/06/30 00:53:55;;;;;;;11.50;8.05;;;19.70;99.90;;;;;;4995521;28;20053;-63
2022/06/30 00:56:21;;;;;;;8.88;7.97;;;19.60;99.90;;;;;;4996157;28;20042;-63
2022/06/30 00:58:48;;;;;;;10.80;7.93;;;19.70;99.90;;;;;;4998197;28;20046;-63
2022/06/30 01:01:17;;;;;;;9.48;7.78;;;19.60;99.90;;;;;;4994917;28;20045;-63
2022/06/30 01:03:43;;;;;;;8.20;7.40;;;19.60;99.90;;;;;;4995644;28;20491;-63
2022/06/30 01:06:10;;;;;;;8.90;7.53;;;19.40;99.90;;;;;;4993287;28;20038;-63
2022/06/30 01:08:36;;;;;;;9.38;8.00;;;19.40;99.90;;;;;;4996608;28;20482;-63
2022/06/30 01:13:47;;;;;;;8.48;7.60;;;19.30;99.90;;;;;;4995534;28;20050;-63
2022/06/30 01:16:13;;;;;;;8.32;7.53;;;19.20;99.90;;;;;;4993120;28;20085;-63
2022/06/30 01:18:39;;;;;;;9.98;7.95;;;19.20;99.90;;;;;;4995050;28;20479;-63
2022/06/30 01:21:05;;;;;;;9.07;8.18;;;19.10;99.90;;;;;;4995174;28;20034;-63
2022/06/30 01:23:31;;;;;;;9.70;8.02;;;19.00;99.90;;;;;;4994338;28;20521;-63
2022/06/30 01:25:56;;;;;;;11.35;7.85;;;18.90;99.90;;;;;;4976352;28;20046;-63
2022/06/30 01:28:22;;;;;;;9.85;8.38;;;18.80;99.90;;;;;;4997187;28;20038;-63
2022/06/30 01:30:48;;;;;;;10.32;8.30;;;18.70;99.90;;;;;;4994002;28;20042;-63
2022/06/30 01:33:14;;;;;;;9.52;8.63;;;18.70;99.90;;;;;;4998304;28;20038;-63
2022/06/30 01:35:39;;;;;;;10.77;8.70;;;18.60;99.90;;;;;;4995116;28;20038;-63
2022/06/30 01:38:05;;;;;;;9.98;8.32;;;18.50;99.90;;;;;;4994905;28;20038;-63
2022/06/30 01:40:34;;;;;;;10.55;8.45;;;18.60;99.90;;;;;;5008969;28;20041;-63
2022/06/30 01:43:00;;;;;;;9.35;8.27;;;18.60;99.90;;;;;;4997002;28;20582;-63
2022/06/30 01:45:26;;;;;;;9.75;8.73;;;18.50;99.90;;;;;;5000404;28;20039;-63
2022/06/30 01:47:52;;;;;;;9.77;8.02;;;18.50;99.90;;;;;;5012851;28;20041;-63
2022/06/30 01:50:21;;;;;;;8.68;7.88;;;18.50;99.90;;;;;;4993480;28;20035;-63
2022/06/30 01:52:47;;;;;;;11.93;8.82;;;18.50;99.90;;;;;;4994516;28;20048;-63
2022/06/30 01:55:14;;;;;;;11.63;7.82;;;18.40;99.90;;;;;;4994670;28;20117;-63
2022/06/30 01:57:39;;;;;;;11.70;8.77;;;18.40;99.90;;;;;;4992565;28;20049;-63
2022/06/30 02:00:08;;;;;;;10.43;8.30;;;18.40;99.90;;;;;;4993853;28;20039;-63
2022/06/30 02:02:34;;;;;;;10.85;8.70;;;18.50;99.90;;;;;;4993218;28;20498;-63
2022/06/30 02:05:00;;;;;;;10.43;8.27;;;18.50;99.90;;;;;;4975337;28;20081;-63
2022/06/30 02:07:26;;;;;;;9.57;8.45;;;18.40;99.90;;;;;;4981370;28;20074;-63
2022/06/30 02:09:52;;;;;;;11.32;8.05;;;18.50;99.90;;;;;;4993988;28;20066;-63
2022/06/30 02:15:05;;;;;;;12.57;8.50;;;18.30;99.90;;;;;;4996627;28;20062;-63
2022/06/30 02:17:30;;;;;;;11.93;8.38;;;18.30;99.90;;;;;;4994048;28;20030;-63
2022/06/30 02:19:56;;;;;;;15.18;8.85;;;18.30;99.90;;;;;;4976420;28;20050;-63
2022/06/30 02:22:22;;;;;;;10.48;8.38;;;18.30;99.90;;;;;;5075885;22;20069;-65
2022/06/30 02:24:47;;;;;;;9.38;8.35;;;18.20;99.90;;;;;;4993816;28;20132;-65
2022/06/30 02:27:13;;;;;;;10.05;8.30;;;18.20;99.90;;;;;;5026499;28;20041;-65
2022/06/30 02:37:25;;;;;;;9.73;8.73;;;18.10;99.90;;;;;;6012362;22;20402;-66
2022/06/30 02:39:51;;;;;;;13.05;8.43;;;18.00;99.90;;;;;;4980636;28;20494;-66
2022/06/30 02:42:16;;;;;;;9.48;8.27;;;18.00;99.90;;;;;;4976259;28;20046;-67
2022/06/30 02:44:42;;;;;;;10.13;8.75;;;17.90;99.90;;;;;;4976205;28;20268;-67
2022/06/30 03:20:47;;;;;;;11.77;9.50;;;17.70;99.90;;;;;;5900753;22;20057;-65
2022/06/30 03:25:48;;;;;;;10.75;8.70;;;17.60;99.90;;;;;;5221761;22;20058;-65
2022/06/30 03:28:16;;;;;;;10.23;9.15;;;17.70;99.90;;;;;;4974952;28;20084;-66
2022/06/30 03:30:45;;;;;;;14.27;8.93;;;17.70;99.90;;;;;;4974385;28;20073;-66
2022/06/30 03:35:46;;;;;;;13.13;8.88;;;17.70;99.90;;;;;;5854968;22;20070;-67
2022/06/30 03:38:12;;;;;;;13.43;8.93;;;17.70;99.90;;;;;;4971238;28;20035;-67
2022/06/30 03:40:38;;;;;;;10.45;8.82;;;17.70;99.90;;;;;;4985311;28;20030;-68
2022/06/30 03:43:04;;;;;;;11.50;9.43;;;17.70;99.90;;;;;;5008154;28;20486;-68
2022/06/30 03:45:29;;;;;;;11.02;8.88;;;17.70;99.90;;;;;;4969935;28;20051;-68
2022/06/30 03:47:55;;;;;;;13.07;9.18;;;17.70;99.90;;;;;;4953687;28;20046;-68
2022/06/30 04:05:53;;;;;;;16.00;9.40;;;17.90;99.90;;;;;;5659038;22;20414;-68
2022/06/30 04:08:19;;;;;;;10.93;9.27;;;18.00;99.90;;;;;;4968659;28;20492;-68
2022/06/30 04:26:23;;;;;;;13.02;8.88;;;18.40;99.90;;;;;;5487968;22;20417;-68
2022/06/30 04:28:48;;;;;;;12.85;9.35;;;18.40;99.90;;;;;;4959118;28;20050;-68
2022/06/30 04:33:58;;;;;;;10.48;9.35;;;18.50;99.90;;;;;;4971705;28;20501;-68
2022/06/30 04:41:36;;;;;;;10.30;9.20;;;18.50;99.90;;;;;;5928474;22;20057;-68
2022/06/30 04:44:02;;;;;;;11.32;9.70;;;18.50;99.90;;;;;;4993881;28;20129;-68
2022/06/30 04:49:04;;;;;;;11.98;10.07;;;18.50;99.90;;;;;;5545832;22;20038;-66
2022/06/30 04:51:29;;;;;;;14.63;9.38;;;18.60;99.90;;;;;;4972053;28;20397;-67
2022/06/30 04:53:55;;;;;;;14.32;9.57;;;18.60;99.90;;;;;;4987660;28;20462;-67
2022/06/30 04:56:20;;;;;;;11.80;9.95;;;18.60;99.90;;;;;;4985661;28;20463;-67
2022/06/30 04:58:46;;;;;;;13.25;9.80;;;18.70;99.90;;;;;;4973826;28;20051;-67
2022/06/30 05:03:47;;;;;;;11.45;9.30;;;18.70;99.90;;;;;;5964193;23;21331;-67
2022/06/30 05:06:13;;;;;;;10.82;9.70;;;18.70;99.90;;;;;;4965913;28;20038;-67
2022/06/30 05:08:39;;;;;;;12.43;9.75;;;18.80;99.90;;;;;;4937204;28;20035;-68
2022/06/30 05:11:04;;;;;;;10.48;9.25;;;18.80;99.90;;;;;;4961784;28;20030;-68
2022/06/30 05:13:30;;;;;;;11.80;9.57;;;18.90;99.90;;;;;;4957742;28;20126;-68
2022/06/30 05:15:56;;;;;;;13.88;9.85;;;18.90;99.90;;;;;;5220917;23;21033;-67
2022/06/30 05:18:24;;;;;;;11.07;8.93;;;18.90;99.90;;;;;;4965548;28;20124;-67
2022/06/30 05:20:50;;;;;;;12.00;9.48;;;19.00;99.90;;;;;;4990814;28;20061;-68
2022/06/30 05:23:15;;;;;;;10.48;9.18;;;19.10;99.90;;;;;;4991640;28;20034;-67
2022/06/30 05:30:55;;;;;;;10.02;9.02;;;19.20;99.90;;;;;;4970448;28;20058;-64
2022/06/30 05:33:21;;;;;;;11.20;9.15;;;19.30;99.90;;;;;;4972057;28;20038;-64
2022/06/30 05:35:52;;;;;;;15.30;9.70;;;19.30;99.90;;;;;;4965869;28;20051;-64
2022/06/30 05:38:18;;;;;;;11.55;9.23;;;19.40;99.90;;;;;;4968064;28;20062;-64
2022/06/30 05:40:46;;;;;;;12.82;9.20;;;19.50;99.90;;;;;;4975094;28;20057;-64
2022/06/30 05:43:13;;;;;;;11.40;9.63;;;19.40;99.90;;;;;;4962520;28;20095;-64
2022/06/30 05:45:40;;;;;;;12.63;10.05;;;19.50;99.90;;;;;;4964626;28;20046;-64
2022/06/30 05:48:05;;;;;;;11.90;9.25;;;19.60;99.90;;;;;;4975553;28;20042;-64
2022/06/30 05:50:31;;;;;;;15.23;9.18;;;19.70;99.90;;;;;;4965119;28;20046;-64
2022/06/30 05:52:57;;;;;;;13.25;9.93;;;19.70;99.90;;;;;;4938251;28;20047;-64
2022/06/30 05:55:22;;;;;;;10.77;9.65;;;19.80;99.90;;;;;;4955516;28;20468;-64
2022/06/30 05:57:53;;;;;;;12.48;9.70;;;19.80;99.90;;;;;;4955693;29;20066;-64
2022/06/30 06:00:20;;;;;;;11.05;9.95;;;19.90;99.90;;;;;;4958372;28;20148;-64
2022/06/30 06:02:46;;;;;;;12.48;10.00;;;20.00;99.90;;;;;;4967450;28;20512;-64
2022/06/30 06:05:11;;;;;;;11.35;10.00;;;20.00;99.90;;;;;;4974299;28;20043;-64
2022/06/30 06:07:37;;;;;;;10.70;9.60;;;20.10;99.90;;;;;;4963695;28;20070;-64
2022/06/30 06:10:04;;;;;;;18.42;10.05;;;20.10;99.90;;;;;;4954062;28;20120;-64
2022/06/30 06:12:30;;;;;;;16.42;10.73;;;20.20;99.90;;;;;;4955306;28;20483;-64
2022/06/30 06:14:55;;;;;;;11.65;10.30;;;20.30;99.90;;;;;;4952896;28;20035;-64
2022/06/30 06:17:21;;;;;;;13.55;10.07;;;20.30;99.90;;;;;;4959232;28;20041;-64
2022/06/30 06:19:47;;;;;;;14.90;10.20;;;20.40;99.90;;;;;;4972437;28;20043;-64
2022/06/30 06:22:12;;;;;;;14.18;10.07;;;20.50;99.90;;;;;;4954377;29;20051;-64
2022/06/30 06:24:38;;;;;;;13.43;9.90;;;20.60;99.90;;;;;;4952783;28;20473;-64
2022/06/30 06:27:04;;;;;;;13.30;10.40;;;20.70;99.90;;;;;;4952635;28;20188;-64
2022/06/30 06:29:30;;;;;;;12.02;10.57;;;20.80;99.90;;;;;;4959142;28;20038;-64
2022/06/30 06:31:55;;;;;;;11.82;10.48;;;20.90;99.90;;;;;;4955096;28;20069;-64
2022/06/30 06:34:21;;;;;;;13.30;11.07;;;20.90;99.90;;;;;;4959919;28;20502;-65
2022/06/30 06:36:47;;;;;;;15.63;11.38;;;21.00;99.90;;;;;;4970398;28;20043;-64
2022/06/30 06:39:13;;;;;;;12.43;11.13;;;21.00;99.90;;;;;;4970053;28;20035;-64
2022/06/30 06:41:38;;;;;;;14.10;11.57;;;21.20;99.90;;;;;;4966262;28;20118;-64
2022/06/30 06:44:04;;;;;;;16.50;11.95;;;21.20;99.90;;;;;;4954134;28;20031;-64
2022/06/30 06:46:30;;;;;;;14.90;12.05;;;21.30;99.90;;;;;;4954408;29;20106;-64
2022/06/30 06:49:00;;;;;;;17.40;11.30;;;21.40;99.90;;;;;;4952907;28;20479;-64
2022/06/30 06:51:27;;;;;;;21.83;11.43;;;21.50;99.90;;;;;;4958431;28;20641;-64
2022/06/30 06:53:53;;;;;;;13.52;11.75;;;21.60;99.90;;;;;;4953791;28;20126;-64
2022/06/30 06:56:19;;;;;;;14.45;12.00;;;21.60;99.90;;;;;;4954259;29;20131;-64
2022/06/30 06:58:46;;;;;;;13.55;11.18;;;21.70;99.90;;;;;;4953780;28;20079;-64
2022/06/30 07:01:11;;;;;;;17.25;12.55;;;21.70;99.90;;;;;;4956740;28;20082;-64
2022/06/30 07:03:38;;;;;;;17.85;11.63;;;21.80;99.90;;;;;;4973068;28;20117;-64
2022/06/30 07:06:04;;;;;;;14.50;12.57;;;21.80;99.90;;;;;;4942409;28;20039;-64
2022/06/30 07:08:30;;;;;;;13.82;12.25;;;21.80;99.90;;;;;;4959916;28;20039;-64
2022/06/30 07:10:57;;;;;;;13.80;11.48;;;21.90;99.90;;;;;;4972761;28;20045;-64
2022/06/30 07:13:23;;;;;;;16.27;11.77;;;22.00;99.90;;;;;;4972926;28;20035;-64
2022/06/30 07:15:49;;;;;;;13.63;11.77;;;22.00;99.90;;;;;;4962361;28;20049;-64
2022/06/30 07:18:15;;;;;;;14.52;11.80;;;22.10;99.90;;;;;;4960799;28;20110;-65
2022/06/30 07:20:41;;;;;;;14.18;12.10;;;22.10;99.90;;;;;;4952689;28;20041;-64
2022/06/30 07:23:07;;;;;;;14.93;12.27;;;22.20;99.90;;;;;;4953124;28;20057;-64
2022/06/30 07:25:33;;;;;;;17.20;12.68;;;22.20;99.90;;;;;;4951731;28;20518;-64
2022/06/30 07:27:58;;;;;;;17.90;13.07;;;22.30;99.90;;;;;;4960503;28;20035;-65
2022/06/30 07:30:25;;;;;;;14.30;12.80;;;22.40;99.90;;;;;;4952152;28;20031;-64
2022/06/30 07:32:51;;;;;;;15.70;12.60;;;22.50;99.90;;;;;;4952432;29;20082;-65
2022/06/30 07:35:17;;;;;;;14.93;13.38;;;22.50;99.90;;;;;;4951054;28;20062;-64
2022/06/30 07:37:42;;;;;;;14.65;12.88;;;22.60;99.90;;;;;;4957439;28;20042;-65
2022/06/30 07:40:09;;;;;;;17.00;13.73;;;22.70;99.90;;;;;;4958793;28;20479;-64
2022/06/30 07:42:35;;;;;;;15.68;13.43;;;22.80;99.90;;;;;;4953141;28;20102;-64
2022/06/30 07:45:05;;;;;;;16.95;13.45;;;22.90;99.90;;;;;;4952826;28;20043;-64
2022/06/30 07:47:31;;;;;;;14.60;13.10;;;23.00;99.90;;;;;;4956808;28;20035;-64
2022/06/30 07:49:57;;;;;;;17.77;14.10;;;23.10;99.90;;;;;;4952437;28;20587;-64
2022/06/30 07:52:23;;;;;;;15.50;13.88;;;23.10;99.90;;;;;;4953158;29;20070;-64
2022/06/30 07:54:50;;;;;;;16.15;14.45;;;23.30;99.90;;;;;;4949760;28;20070;-64
2022/06/30 07:57:17;;;;;;;16.17;14.48;;;23.30;99.90;;;;;;4958787;28;20043;-64
2022/06/30 07:59:42;;;;;;;17.08;15.25;;;23.50;99.90;;;;;;4952214;28;20439;-64
2022/06/30 08:02:08;;;;;;;16.25;14.55;;;23.50;99.90;;;;;;4961659;28;20042;-64
2022/06/30 08:04:34;;;;;;;16.63;14.75;;;23.60;99.90;;;;;;4961080;28;20503;-64
2022/06/30 08:07:01;;;;;;;19.85;15.52;;;23.80;99.90;;;;;;4952038;28;20078;-65
2022/06/30 08:09:27;;;;;;;17.08;15.35;;;23.80;99.90;;;;;;4950070;28;20074;-65
2022/06/30 08:11:54;;;;;;;19.55;14.95;;;23.80;99.90;;;;;;4951020;28;20073;-64
2022/06/30 08:14:21;;;;;;;21.17;15.93;;;23.90;99.90;;;;;;4955990;28;20039;-65
2022/06/30 08:16:47;;;;;;;15.85;14.15;;;24.00;99.90;;;;;;4953309;28;20500;-65
2022/06/30 08:19:13;;;;;;;19.05;16.17;;;24.00;99.90;;;;;;4951560;28;20035;-64
2022/06/30 08:21:39;;;;;;;19.90;15.70;;;24.10;99.90;;;;;;4950567;28;20129;-65
2022/06/30 08:24:05;;;;;;;16.67;14.93;;;24.20;99.90;;;;;;4957655;28;20045;-64
2022/06/30 12:36:32;;;;;;;10.00;5.90;;;29.30;91.70;;;;;;5064132;23;20056;-69
2022/06/30 12:39:10;;;;;;;6.18;4.65;;;29.30;90.80;;;;;;4893439;29;20058;-68
2022/06/30 12:41:36;;;;;;;7.68;4.38;;;29.30;88.90;;;;;;4889431;29;20045;-68
2022/06/30 12:44:02;;;;;;;7.32;4.18;;;29.30;86.40;;;;;;4873968;29;20040;-67
2022/06/30 12:46:40;;;;;;;6.07;4.05;;;29.40;86.70;;;;;;4875493;29;20053;-69
2022/06/30 12:49:06;;;;;;;6.95;2.97;;;29.50;87.00;;;;;;4902631;23;20047;-69
2022/06/30 12:51:32;;;;;;;7.32;2.80;;;29.40;83.70;;;;;;4924511;29;20043;-71
2022/06/30 12:54:01;;;;;;;5.85;2.80;;;29.30;77.90;;;;;;4926062;29;20099;-70
2022/06/30 12:56:28;;;;;;;5.78;2.80;;;29.30;77.30;;;;;;4926351;29;20040;-70
2022/06/30 12:59:13;;;;;;;3.83;2.53;;;29.20;75.50;;;;;;4926490;29;20661;-70
2022/06/30 13:01:47;;;;;;;7.00;2.85;;;29.30;71.00;;;;;;4920282;29;20035;-72
2022/06/30 13:04:15;;;;;;;7.03;3.10;;;29.30;74.20;;;;;;4921434;29;20123;-72
2022/06/30 13:06:43;;;;;;;9.02;3.60;;;29.30;72.80;;;;;;4923413;29;20052;-70
2022/06/30 13:09:11;;;;;;;7.63;3.92;;;29.50;75.30;;;;;;4913528;29;20109;-71
2022/06/30 13:11:45;;;;;;;6.07;4.10;;;29.60;77.40;;;;;;4916492;29;20420;-70
2022/06/30 13:14:11;;;;;;;9.32;4.60;;;29.50;77.40;;;;;;4925063;29;20492;-71
2022/06/30 13:16:36;;;;;;;9.75;4.80;;;29.40;79.00;;;;;;4926522;29;20047;-70
2022/06/30 13:19:05;;;;;;;10.10;4.68;;;29.30;79.10;;;;;;4912266;29;20036;-70
2022/06/30 13:21:30;;;;;;;11.43;5.38;;;29.30;79.80;;;;;;4914248;29;20460;-70
2022/06/30 13:23:56;;;;;;;10.23;5.18;;;29.50;82.00;;;;;;4906815;29;20512;-70
2022/06/30 13:26:23;;;;;;;9.13;4.97;;;29.50;79.80;;;;;;4904630;29;20085;-70
2022/06/30 13:28:49;;;;;;;10.27;6.70;;;29.60;79.70;;;;;;4924970;29;20048;-70
2022/06/30 13:31:15;;;;;;;9.57;7.13;;;29.60;82.50;;;;;;4927861;29;20047;-70
2022/06/30 13:33:41;;;;;;;10.80;6.97;;;29.70;87.40;;;;;;4922452;29;20156;-70
2022/06/30 13:36:08;;;;;;;8.90;6.50;;;29.90;88.00;;;;;;4906662;29;20154;-70
2022/06/30 13:38:34;;;;;;;9.25;6.47;;;29.70;87.00;;;;;;4914332;29;20040;-71
2022/06/30 13:41:01;;;;;;;10.77;5.93;;;29.60;85.20;;;;;;4912936;29;20044;-72
2022/06/30 13:43:27;;;;;;;12.82;5.85;;;29.80;84.00;;;;;;4896380;29;20072;-72
2022/06/30 13:45:53;;;;;;;9.00;6.53;;;29.80;83.60;;;;;;4902509;29;21128;-70
2022/06/30 13:48:19;;;;;;;9.15;6.85;;;29.70;81.80;;;;;;4905570;29;20135;-70
2022/06/30 13:50:45;;;;;;;9.43;6.00;;;29.70;81.60;;;;;;4912404;29;20127;-70
2022/06/30 13:53:10;;;;;;;10.00;6.88;;;29.50;85.40;;;;;;4911096;29;20068;-71
2022/06/30 13:55:36;;;;;;;9.57;6.07;;;29.50;82.50;;;;;;4911650;29;20075;-70
2022/06/30 13:58:02;;;;;;;9.48;6.40;;;29.50;83.60;;;;;;4920547;29;20119;-70
2022/06/30 14:00:28;;;;;;;9.57;6.72;;;29.40;83.50;;;;;;4911443;29;20102;-70
2022/06/30 14:02:54;;;;;;;11.23;6.85;;;29.40;83.20;;;;;;4913898;29;20033;-70
2022/06/30 14:05:20;;;;;;;10.15;6.93;;;29.70;86.60;;;;;;4914419;29;20489;-71
2022/06/30 14:07:46;;;;;;;10.38;7.07;;;29.70;86.40;;;;;;4906564;29;20088;-70
2022/06/30 14:10:12;;;;;;;10.65;6.07;;;30.00;85.00;;;;;;4912486;29;20489;-70
2022/06/30 14:12:41;;;;;;;8.40;6.40;;;30.30;84.70;;;;;;4912923;29;20119;-70
2022/06/30 14:15:09;;;;;;;8.73;6.30;;;30.50;83.30;;;;;;4907383;29;20049;-70
2022/06/30 14:17:38;;;;;;;8.60;6.03;;;30.40;82.70;;;;;;4907501;29;20133;-72
2022/06/30 14:20:05;;;;;;;11.18;6.50;;;30.40;84.00;;;;;;4914101;29;20074;-71
2022/06/30 14:22:31;;;;;;;9.27;6.30;;;29.80;82.00;;;;;;4913777;29;20108;-70
2022/06/30 14:24:57;;;;;;;9.52;6.18;;;29.80;87.70;;;;;;4908463;29;20035;-71
2022/06/30 14:27:23;;;;;;;8.20;6.53;;;29.90;86.10;;;;;;4913286;29;20051;-71
2022/06/30 14:29:48;;;;;;;8.70;6.60;;;30.00;89.40;;;;;;4914002;29;20036;-72
2022/06/30 14:32:14;;;;;;;7.63;5.93;;;29.90;85.20;;;;;;4907551;29;20064;-71
2022/06/30 14:34:40;;;;;;;9.52;5.82;;;29.70;86.90;;;;;;4915911;29;20043;-70
2022/06/30 14:37:07;;;;;;;8.23;6.45;;;29.60;90.70;;;;;;4918942;29;20060;-70
2022/06/30 14:39:33;;;;;;;9.60;6.57;;;29.70;89.00;;;;;;4908391;29;20048;-71
2022/06/30 14:44:43;;;;;;;8.63;6.05;;;29.70;85.40;;;;;;4897930;29;20056;-71
2022/06/30 14:47:09;;;;;;;10.15;7.05;;;30.00;84.90;;;;;;4893911;29;20057;-71
2022/06/30 14:49:34;;;;;;;11.70;7.57;;;30.20;85.10;;;;;;4902892;29;20054;-72
2022/06/30 14:52:00;;;;;;;14.00;7.57;;;30.40;86.90;;;;;;4906864;29;20048;-72
2022/06/30 14:54:26;;;;;;;12.13;7.63;;;30.60;86.80;;;;;;4911905;29;20147;-73
2022/06/30 14:56:51;;;;;;;8.77;7.68;;;30.80;86.00;;;;;;4914600;29;20111;-72
2022/06/30 14:59:17;;;;;;;6.93;6.20;;;31.10;84.70;;;;;;4904171;29;20051;-71
2022/06/30 15:01:43;;;;;;;7.88;7.00;;;31.30;84.50;;;;;;4913175;29;20042;-72
2022/06/30 15:04:08;;;;;;;9.75;6.85;;;31.60;84.30;;;;;;4909839;29;20040;-71
2022/06/30 15:06:34;;;;;;;10.65;6.50;;;31.70;82.40;;;;;;4908889;29;20494;-72
2022/06/30 15:09:01;;;;;;;11.27;6.75;;;31.80;78.60;;;;;;4904010;29;20512;-71
2022/06/30 15:11:28;;;;;;;9.27;6.43;;;31.80;75.90;;;;;;4901455;29;20464;-71
2022/06/30 15:13:53;;;;;;;8.45;5.60;;;31.80;78.50;;;;;;4903980;29;20527;-73
2022/06/30 15:16:19;;;;;;;9.05;6.53;;;32.20;81.60;;;;;;4911341;29;20040;-73
2022/06/30 15:18:45;;;;;;;11.05;6.65;;;32.20;78.90;;;;;;4909748;29;20052;-72
2022/06/30 15:24:11;;;;;;;10.70;6.28;;;32.00;78.00;;;;;;4911264;29;20060;-72
2022/06/30 15:26:43;;;;;;;10.00;7.13;;;32.10;78.70;;;;;;4906973;29;20056;-72
2022/06/30 15:29:11;;;;;;;12.15;10.80;;;32.10;78.70;;;;;;4910575;29;20124;-72
2022/06/30 15:31:39;;;;;;;11.93;10.50;;;32.00;79.90;;;;;;4913318;29;20044;-68
2022/06/30 15:34:06;;;;;;;12.98;11.38;;;32.00;83.50;;;;;;4913515;29;20502;-68
2022/06/30 15:36:34;;;;;;;15.38;12.35;;;32.10;83.80;;;;;;4908560;29;20041;-69
2022/06/30 15:39:01;;;;;;;12.20;10.93;;;31.60;84.70;;;;;;4902491;29;20048;-69
2022/06/30 15:41:28;;;;;;;12.52;11.32;;;30.80;86.60;;;;;;4905155;29;20413;-68
2022/06/30 15:44:01;;;;;;;12.43;11.00;;;30.10;91.20;;;;;;4915966;29;20044;-68
2022/06/30 15:46:28;;;;;;;13.73;12.23;;;29.70;93.70;;;;;;4914283;29;20044;-68
2022/06/30 15:48:54;;;;;;;14.35;12.85;;;29.10;93.80;;;;;;4908619;29;20063;-67
2022/06/30 15:51:20;;;;;;;12.23;11.02;;;28.60;94.70;;;;;;4903819;29;20032;-67
2022/06/30 15:53:45;;;;;;;17.40;13.35;;;28.40;95.30;;;;;;4908860;29;20143;-67
2022/06/30 15:56:11;;;;;;;14.77;13.23;;;28.60;95.20;;;;;;4910697;29;20056;-67
2022/06/30 15:58:37;;;;;;;16.75;13.30;;;29.20;95.10;;;;;;4910516;29;20043;-67
2022/06/30 16:01:03;;;;;;;16.63;13.45;;;29.80;94.00;;;;;;4912634;29;20044;-68
2022/06/30 16:03:29;;;;;;;13.98;12.20;;;30.10;93.20;;;;;;4914407;29;20072;-67
2022/06/30 16:05:57;;;;;;;15.63;12.60;;;30.40;93.50;;;;;;4905651;29;20084;-67
2022/06/30 16:08:24;;;;;;;17.48;13.18;;;30.90;93.40;;;;;;4913068;29;20449;-67
2022/06/30 16:10:51;;;;;;;15.57;12.80;;;30.90;92.20;;;;;;4914570;29;20040;-68
2022/06/30 16:13:18;;;;;;;14.98;13.20;;;31.40;91.90;;;;;;4903406;29;20045;-67
2022/06/30 16:15:44;;;;;;;15.30;13.88;;;31.50;91.60;;;;;;4913780;29;20048;-67
2022/06/30 16:18:10;;;;;;;15.35;13.10;;;31.50;90.70;;;;;;4914563;29;20070;-67
2022/06/30 16:20:36;;;;;;;14.77;12.57;;;31.50;89.80;;;;;;4914540;29;20036;-67
2022/06/30 16:23:02;;;;;;;15.00;13.35;;;31.20;89.30;;;;;;4909404;29;20052;-66
2022/06/30 16:25:30;;;;;;;14.80;13.40;;;31.40;89.40;;;;;;4915419;29;20040;-67
2022/06/30 16:27:56;;;;;;;16.20;12.77;;;31.30;88.00;;;;;;4914055;29;20048;-67
2022/06/30 16:30:22;;;;;;;15.27;12.80;;;31.10;88.30;;;;;;4909112;29;20040;-67
2022/06/30 16:32:48;;;;;;;14.07;12.63;;;31.40;89.90;;;;;;4911882;29;20040;-67
2022/06/30 16:35:13;;;;;;;14.77;13.15;;;31.40;87.40;;;;;;4915310;29;20040;-67
2022/06/30 16:37:39;;;;;;;15.07;13.20;;;31.30;87.30;;;;;;4915109;29;20441;-71
2022/06/30 16:40:06;;;;;;;14.25;11.90;;;31.40;87.80;;;;;;4893097;29;20044;-71
2022/06/30 16:42:32;;;;;;;14.02;12.52;;;31.50;88.90;;;;;;4905481;29;20040;-71
2022/06/30 16:44:59;;;;;;;14.05;12.55;;;31.50;87.30;;;;;;4903494;29;20048;-70
2022/06/30 16:47:24;;;;;;;13.13;11.75;;;31.50;87.30;;;;;;4908238;29;20580;-70
2022/06/30 16:49:50;;;;;;;13.30;12.05;;;31.60;87.50;;;;;;4902080;29;20068;-71
2022/06/30 16:52:15;;;;;;;12.85;11.55;;;31.40;87.20;;;;;;4901145;29;20144;-71
2022/06/30 16:54:41;;;;;;;12.10;10.88;;;31.80;88.60;;;;;;4900897;29;20056;-72
2022/06/30 16:57:07;;;;;;;11.15;10.00;;;32.20;88.50;;;;;;4892214;29;20485;-72
2022/06/30 16:59:37;;;;;;;12.90;9.88;;;32.30;87.00;;;;;;4893143;29;20640;-71
2022/06/30 17:02:07;;;;;;;12.55;11.23;;;32.40;84.80;;;;;;4900867;29;20172;-72
2022/06/30 17:04:33;;;;;;;15.95;10.60;;;32.00;83.70;;;;;;4911646;29;20390;-70
2022/06/30 17:06:58;;;;;;;11.63;10.43;;;31.90;85.80;;;;;;4921627;29;20131;-70
2022/06/30 17:09:24;;;;;;;13.23;10.23;;;31.80;85.80;;;;;;4914088;29;20496;-70
2022/06/30 17:11:50;;;;;;;12.73;10.15;;;31.50;87.10;;;;;;4906091;29;20063;-70
2022/06/30 17:14:21;;;;;;;11.88;10.77;;;31.30;86.70;;;;;;4913763;29;20047;-70
2022/06/30 17:16:46;;;;;;;11.20;10.10;;;31.20;88.00;;;;;;4927107;29;20105;-70
2022/06/30 17:19:13;;;;;;;10.40;9.30;;;31.30;89.00;;;;;;4920632;29;20044;-70
2022/06/30 17:21:40;;;;;;;11.18;9.73;;;31.70;89.80;;;;;;4915512;29;20043;-70
2022/06/30 17:24:06;;;;;;;13.10;11.77;;;32.00;89.00;;;;;;4915755;29;20091;-74
2022/06/30 17:26:32;;;;;;;14.07;12.57;;;31.70;88.20;;;;;;4901396;29;20151;-69
2022/06/30 17:29:00;;;;;;;14.27;12.88;;;31.40;89.20;;;;;;4910644;29;20040;-70
2022/06/30 17:31:26;;;;;;;17.35;14.23;;;31.10;89.90;;;;;;4915865;29;20491;-69
2022/06/30 17:33:51;;;;;;;16.15;13.38;;;30.50;90.60;;;;;;4900710;29;20067;-69
2022/06/30 17:36:19;;;;;;;18.38;15.68;;;29.90;91.90;;;;;;4902829;29;20049;-70
2022/06/30 17:38:45;;;;;;;18.45;16.70;;;29.50;92.70;;;;;;4922170;29;20040;-69
2022/06/30 17:41:11;;;;;;;19.10;17.20;;;28.90;93.60;;;;;;4912024;29;20453;-70
2022/06/30 17:43:36;;;;;;;20.73;18.63;;;28.20;95.30;;;;;;4916020;29;20123;-69
2022/06/30 17:46:02;;;;;;;21.33;19.13;;;27.60;96.30;;;;;;4908244;29;20085;-72
2022/06/30 17:48:28;;;;;;;20.17;18.05;;;27.20;97.20;;;;;;4919634;29;20395;-71
2022/06/30 17:50:53;;;;;;;21.38;19.17;;;26.90;97.80;;;;;;4927145;29;20413;-72
2022/06/30 17:53:19;;;;;;;22.33;20.05;;;26.60;98.30;;;;;;4902425;29;20048;-71
2022/06/30 17:55:46;;;;;;;22.08;19.77;;;26.30;99.30;;;;;;4908162;29;20047;-72
2022/06/30 17:58:14;;;;;;;23.15;19.65;;;26.10;99.80;;;;;;4927452;29;20055;-72
2022/06/30 18:00:45;;;;;;;25.50;19.70;;;25.90;99.90;;;;;;4918233;29;20096;-71
2022/06/30 18:03:11;;;;;;;23.20;19.58;;;25.80;99.90;;;;;;4912592;29;20103;-71
2022/06/30 18:05:38;;;;;;;23.63;19.33;;;25.70;99.90;;;;;;4917145;29;20550;-72
2022/06/30 18:11:14;;;;;;;22.58;18.70;;;25.40;99.90;;;;;;4907405;29;20501;-71
2022/06/30 18:13:48;;;;;;;22.80;20.40;;;25.20;99.90;;;;;;4920532;29;20489;-71
2022/06/30 18:16:16;;;;;;;20.60;17.73;;;25.00;99.90;;;;;;4902620;29;20041;-71
2022/06/30 18:18:42;;;;;;;18.30;16.30;;;24.90;99.90;;;;;;4907326;29;20548;-71
2022/06/30 18:21:08;;;;;;;17.13;15.52;;;24.80;99.90;;;;;;4926723;29;20331;-71
2022/06/30 18:23:34;;;;;;;17.27;15.48;;;24.60;99.90;;;;;;4933185;29;20488;-71
2022/06/30 18:26:01;;;;;;;17.40;14.85;;;24.60;99.90;;;;;;4904231;29;20115;-71
2022/06/30 18:28:31;;;;;;;18.60;15.30;;;24.40;99.90;;;;;;4909464;29;20044;-71
2022/06/30 18:31:03;;;;;;;17.73;15.27;;;24.30;99.90;;;;;;4930982;29;20043;-71